sensor_id;sensor_type;location;lat;lon;timestamp;temperature;humidity
22698;DHT22;11516;51.612;7.510;2022-08-19T00:01:21;19.30;99.90
22698;DHT22;11516;51.612;7.510;2022-08-19T00:03:47;19.20;99.90
22698;DHT22;11516;51.612;7.510;2022-08-19T00:06:13;19.20;99.90
22698;DHT22;11516;51.612;7.510;2022-08-19T00:08:39;19.10;99.90
22698;DHT22;11516;51.612;7.510;2022-08-19T00:11:05;19.10;99.90
22698;DHT22;11516;51.612;7.510;2022-08-19T00:13:31;19.10;99.90
22698;DHT22;11516;51.612;7.510;2022-08-19T00:15:57;19.10;99.90
22698;DHT22;11516;51.612;7.510;2022-08-19T00:18:24;19.20;99.90
22698;DHT22;11516;51.612;7.510;2022-08-19T00:20:49;19.10;99.90
22698;DHT22;11516;51.612;7.510;2022-08-19T00:23:15;19.10;99.90
22698;DHT22;11516;51.612;7.510;2022-08-19T00:25:41;19.00;99.90
22698;DHT22;11516;51.612;7.510;2022-08-19T00:28:07;19.00;99.90
22698;DHT22;11516;51.612;7.510;2022-08-19T00:30:32;18.90;99.90
22698;DHT22;11516;51.612;7.510;2022-08-19T00:32:58;18.90;99.90
22698;DHT22;11516;51.612;7.510;2022-08-19T00:35:24;18.90;99.90
22698;DHT22;11516;51.612;7.510;2022-08-19T00:37:52;19.00;99.90
22698;DHT22;11516;51.612;7.510;2022-08-19T00:40:18;18.80;99.90
22698;DHT22;11516;51.612;7.510;2022-08-19T00:42:45;18.80;99.90
22698;DHT22;11516;51.612;7.510;2022-08-19T00:45:19;18.80;99.90
22698;DHT22;11516;51.612;7.510;2022-08-19T00:47:45;18.90;99.90
22698;DHT22;11516;51.612;7.510;2022-08-19T00:50:14;19.00;99.90
22698;DHT22;11516;51.612;7.510;2022-08-19T00:52:43;18.80;99.90
22698;DHT22;11516;51.612;7.510;2022-08-19T00:55:13;18.80;99.90
22698;DHT22;11516;51.612;7.510;2022-08-19T00:57:46;18.80;99.90
22698;DHT22;11516;51.612;7.510;2022-08-19T01:00:16;18.80;99.90
22698;DHT22;11516;51.612;7.510;2022-08-19T01:02:43;18.80;99.90
22698;DHT22;11516;51.612;7.510;2022-08-19T01:05:19;18.80;99.90
22698;DHT22;11516;51.612;7.510;2022-08-19T01:07:46;18.80;99.90
22698;DHT22;11516;51.612;7.510;2022-08-19T01:10:15;18.80;99.90
22698;DHT22;11516;51.612;7.510;2022-08-19T01:12:44;18.80;99.90
22698;DHT22;11516;51.612;7.510;2022-08-19T01:15:12;18.70;99.90
22698;DHT22;11516;51.612;7.510;2022-08-19T01:17:39;18.60;99.90
22698;DHT22;11516;51.612;7.510;2022-08-19T01:20:07;18.60;99.90
22698;DHT22;11516;51.612;7.510;2022-08-19T01:22:44;18.60;99.90
22698;DHT22;11516;51.612;7.510;2022-08-19T01:25:10;18.50;99.90
22698;DHT22;11516;51.612;7.510;2022-08-19T01:27:42;18.50;99.90
22698;DHT22;11516;51.612;7.510;2022-08-19T01:30:10;18.50;99.90
22698;DHT22;11516;51.612;7.510;2022-08-19T01:32:36;18.40;99.90
22698;DHT22;11516;51.612;7.510;2022-08-19T01:35:03;18.40;99.90
22698;DHT22;11516;51.612;7.510;2022-08-19T01:37:29;18.30;99.90
22698;DHT22;11516;51.612;7.510;2022-08-19T01:39:55;18.30;99.90
22698;DHT22;11516;51.612;7.510;2022-08-19T01:42:21;18.30;99.90
22698;DHT22;11516;51.612;7.510;2022-08-19T01:44:47;18.30;99.90
22698;DHT22;11516;51.612;7.510;2022-08-19T01:47:14;18.30;99.90
22698;DHT22;11516;51.612;7.510;2022-08-19T01:49:39;18.30;99.90
22698;DHT22;11516;51.612;7.510;2022-08-19T01:52:05;18.30;99.90
22698;DHT22;11516;51.612;7.510;2022-08-19T01:54:31;18.30;99.90
22698;DHT22;11516;51.612;7.510;2022-08-19T01:57:04;18.30;99.90
22698;DHT22;11516;51.612;7.510;2022-08-19T01:59:31;18.30;99.90
22698;DHT22;11516;51.612;7.510;2022-08-19T02:01:57;18.30;99.90
22698;DHT22;11516;51.612;7.510;2022-08-19T02:04:23;18.30;99.90
22698;DHT22;11516;51.612;7.510;2022-08-19T02:06:50;18.30;99.90
22698;DHT22;11516;51.612;7.510;2022-08-19T02:09:16;18.40;99.90
22698;DHT22;11516;51.612;7.510;2022-08-19T02:11:42;18.30;99.90
22698;DHT22;11516;51.612;7.510;2022-08-19T02:14:07;18.20;99.90
22698;DHT22;11516;51.612;7.510;2022-08-19T02:16:35;18.20;99.90
22698;DHT22;11516;51.612;7.510;2022-08-19T02:19:01;18.20;99.90
22698;DHT22;11516;51.612;7.510;2022-08-19T02:21:27;18.00;99.90
22698;DHT22;11516;51.612;7.510;2022-08-19T02:23:52;18.00;99.90
22698;DHT22;11516;51.612;7.510;2022-08-19T02:26:19;17.90;99.90
22698;DHT22;11516;51.612;7.510;2022-08-19T02:28:45;17.90;99.90
22698;DHT22;11516;51.612;7.510;2022-08-19T02:31:12;17.90;99.90
22698;DHT22;11516;51.612;7.510;2022-08-19T02:33:40;17.90;99.90
22698;DHT22;11516;51.612;7.510;2022-08-19T02:36:06;17.80;99.90
22698;DHT22;11516;51.612;7.510;2022-08-19T02:38:32;17.90;99.90
22698;DHT22;11516;51.612;7.510;2022-08-19T02:41:07;17.90;99.90
22698;DHT22;11516;51.612;7.510;2022-08-19T02:43:35;17.90;99.90
22698;DHT22;11516;51.612;7.510;2022-08-19T02:46:34;17.90;99.90
22698;DHT22;11516;51.612;7.510;2022-08-19T02:49:04;17.90;99.90
22698;DHT22;11516;51.612;7.510;2022-08-19T02:51:34;17.80;99.90
22698;DHT22;11516;51.612;7.510;2022-08-19T02:54:00;17.90;99.90
22698;DHT22;11516;51.612;7.510;2022-08-19T02:56:26;17.90;99.90
22698;DHT22;11516;51.612;7.510;2022-08-19T02:58:54;17.90;99.90
22698;DHT22;11516;51.612;7.510;2022-08-19T03:01:23;17.80;99.90
22698;DHT22;11516;51.612;7.510;2022-08-19T03:03:49;17.80;99.90
22698;DHT22;11516;51.612;7.510;2022-08-19T03:06:16;17.70;99.90
22698;DHT22;11516;51.612;7.510;2022-08-19T03:08:44;17.70;99.90
22698;DHT22;11516;51.612;7.510;2022-08-19T03:13:42;17.80;99.90
22698;DHT22;11516;51.612;7.510;2022-08-19T03:16:09;17.80;99.90
22698;DHT22;11516;51.612;7.510;2022-08-19T03:18:35;17.60;99.90
22698;DHT22;11516;51.612;7.510;2022-08-19T03:21:00;17.60;99.90
22698;DHT22;11516;51.612;7.510;2022-08-19T03:23:26;17.60;99.90
22698;DHT22;11516;51.612;7.510;2022-08-19T03:25:52;17.60;99.90
22698;DHT22;11516;51.612;7.510;2022-08-19T03:28:19;17.60;99.90
22698;DHT22;11516;51.612;7.510;2022-08-19T03:31:19;17.60;99.90
22698;DHT22;11516;51.612;7.510;2022-08-19T03:33:45;17.50;99.90
22698;DHT22;11516;51.612;7.510;2022-08-19T03:36:14;17.50;99.90
22698;DHT22;11516;51.612;7.510;2022-08-19T03:38:43;17.50;99.90
22698;DHT22;11516;51.612;7.510;2022-08-19T03:41:12;17.40;99.90
22698;DHT22;11516;51.612;7.510;2022-08-19T03:43:39;17.40;99.90
22698;DHT22;11516;51.612;7.510;2022-08-19T03:46:10;17.40;99.90
22698;DHT22;11516;51.612;7.510;2022-08-19T03:48:38;17.40;99.90
22698;DHT22;11516;51.612;7.510;2022-08-19T03:51:04;17.40;99.90
22698;DHT22;11516;51.612;7.510;2022-08-19T03:53:31;17.50;99.90
22698;DHT22;11516;51.612;7.510;2022-08-19T03:55:58;17.50;99.90
22698;DHT22;11516;51.612;7.510;2022-08-19T03:58:28;17.50;99.90
22698;DHT22;11516;51.612;7.510;2022-08-19T04:00:55;17.50;99.90
22698;DHT22;11516;51.612;7.510;2022-08-19T04:03:21;17.50;99.90
22698;DHT22;11516;51.612;7.510;2022-08-19T04:05:46;17.50;99.90
22698;DHT22;11516;51.612;7.510;2022-08-19T04:08:12;17.50;99.90
22698;DHT22;11516;51.612;7.510;2022-08-19T04:10:38;17.50;99.90
22698;DHT22;11516;51.612;7.510;2022-08-19T04:13:05;17.50;99.90
22698;DHT22;11516;51.612;7.510;2022-08-19T04:15:32;17.40;99.90
22698;DHT22;11516;51.612;7.510;2022-08-19T04:18:04;17.40;99.90
22698;DHT22;11516;51.612;7.510;2022-08-19T04:20:31;17.50;99.90
22698;DHT22;11516;51.612;7.510;2022-08-19T04:22:57;17.50;99.90
22698;DHT22;11516;51.612;7.510;2022-08-19T04:25:22;17.50;99.90
22698;DHT22;11516;51.612;7.510;2022-08-19T04:28:03;17.50;99.90
22698;DHT22;11516;51.612;7.510;2022-08-19T04:33:00;17.50;99.90
22698;DHT22;11516;51.612;7.510;2022-08-19T04:35:25;17.50;99.90
22698;DHT22;11516;51.612;7.510;2022-08-19T04:37:54;17.60;99.90
22698;DHT22;11516;51.612;7.510;2022-08-19T04:40:22;17.60;99.90
22698;DHT22;11516;51.612;7.510;2022-08-19T04:46:28;17.60;99.90
22698;DHT22;11516;51.612;7.510;2022-08-19T04:48:55;17.70;99.90
22698;DHT22;11516;51.612;7.510;2022-08-19T04:51:23;17.60;99.90
22698;DHT22;11516;51.612;7.510;2022-08-19T04:53:48;17.60;99.90
22698;DHT22;11516;51.612;7.510;2022-08-19T04:56:16;17.60;99.90
22698;DHT22;11516;51.612;7.510;2022-08-19T04:58:43;17.70;99.90
22698;DHT22;11516;51.612;7.510;2022-08-19T05:01:19;17.70;99.90
22698;DHT22;11516;51.612;7.510;2022-08-19T05:03:45;17.70;99.90
22698;DHT22;11516;51.612;7.510;2022-08-19T05:06:12;17.80;99.90
22698;DHT22;11516;51.612;7.510;2022-08-19T05:08:40;17.90;99.90
22698;DHT22;11516;51.612;7.510;2022-08-19T05:11:29;17.90;99.90
22698;DHT22;11516;51.612;7.510;2022-08-19T05:13:57;18.00;99.90
22698;DHT22;11516;51.612;7.510;2022-08-19T05:16:42;18.10;99.90
22698;DHT22;11516;51.612;7.510;2022-08-19T05:19:21;18.10;99.90
22698;DHT22;11516;51.612;7.510;2022-08-19T05:25:27;18.30;99.90
22698;DHT22;11516;51.612;7.510;2022-08-19T05:28:02;18.40;99.90
22698;DHT22;11516;51.612;7.510;2022-08-19T05:30:27;18.40;99.90
22698;DHT22;11516;51.612;7.510;2022-08-19T05:32:53;18.50;99.90
22698;DHT22;11516;51.612;7.510;2022-08-19T05:35:20;18.40;99.90
22698;DHT22;11516;51.612;7.510;2022-08-19T05:37:51;18.50;99.90
22698;DHT22;11516;51.612;7.510;2022-08-19T05:40:20;18.50;99.90
22698;DHT22;11516;51.612;7.510;2022-08-19T05:42:45;18.30;99.90
22698;DHT22;11516;51.612;7.510;2022-08-19T05:45:11;18.30;99.90
22698;DHT22;11516;51.612;7.510;2022-08-19T05:47:36;18.30;99.90
22698;DHT22;11516;51.612;7.510;2022-08-19T05:50:03;18.30;99.90
22698;DHT22;11516;51.612;7.510;2022-08-19T05:52:29;18.40;99.90
22698;DHT22;11516;51.612;7.510;2022-08-19T05:54:55;18.40;99.90
22698;DHT22;11516;51.612;7.510;2022-08-19T05:57:21;18.50;99.90
22698;DHT22;11516;51.612;7.510;2022-08-19T05:59:47;18.40;99.90
22698;DHT22;11516;51.612;7.510;2022-08-19T06:02:13;18.60;99.90
22698;DHT22;11516;51.612;7.510;2022-08-19T06:04:39;18.60;99.90
22698;DHT22;11516;51.612;7.510;2022-08-19T06:07:08;18.70;99.90
22698;DHT22;11516;51.612;7.510;2022-08-19T06:09:33;18.80;99.90
22698;DHT22;11516;51.612;7.510;2022-08-19T06:11:59;18.80;99.90
22698;DHT22;11516;51.612;7.510;2022-08-19T06:14:36;18.90;99.90
22698;DHT22;11516;51.612;7.510;2022-08-19T06:17:02;18.90;99.90
22698;DHT22;11516;51.612;7.510;2022-08-19T06:19:37;19.10;99.90
22698;DHT22;11516;51.612;7.510;2022-08-19T06:22:08;19.20;99.90
22698;DHT22;11516;51.612;7.510;2022-08-19T06:24:44;19.30;99.90
22698;DHT22;11516;51.612;7.510;2022-08-19T06:27:09;19.20;99.90
22698;DHT22;11516;51.612;7.510;2022-08-19T06:29:35;19.10;99.90
22698;DHT22;11516;51.612;7.510;2022-08-19T06:32:02;19.10;99.90
22698;DHT22;11516;51.612;7.510;2022-08-19T06:34:32;19.30;99.90
22698;DHT22;11516;51.612;7.510;2022-08-19T06:37:00;19.50;99.90
22698;DHT22;11516;51.612;7.510;2022-08-19T06:39:30;19.60;99.90
22698;DHT22;11516;51.612;7.510;2022-08-19T06:42:07;19.80;99.90
22698;DHT22;11516;51.612;7.510;2022-08-19T06:44:36;19.80;99.90
22698;DHT22;11516;51.612;7.510;2022-08-19T06:47:07;19.80;99.90
22698;DHT22;11516;51.612;7.510;2022-08-19T06:49:34;19.80;99.90
22698;DHT22;11516;51.612;7.510;2022-08-19T06:52:01;19.80;99.90
22698;DHT22;11516;51.612;7.510;2022-08-19T06:54:28;19.80;99.90
22698;DHT22;11516;51.612;7.510;2022-08-19T06:56:55;20.00;99.90
22698;DHT22;11516;51.612;7.510;2022-08-19T06:59:23;19.80;99.90
22698;DHT22;11516;51.612;7.510;2022-08-19T07:01:58;19.90;99.90
22698;DHT22;11516;51.612;7.510;2022-08-19T07:04:29;20.10;99.90
22698;DHT22;11516;51.612;7.510;2022-08-19T07:07:04;20.00;99.90
22698;DHT22;11516;51.612;7.510;2022-08-19T07:09:33;19.90;99.90
22698;DHT22;11516;51.612;7.510;2022-08-19T07:12:07;20.10;99.90
22698;DHT22;11516;51.612;7.510;2022-08-19T07:14:35;19.90;99.90
22698;DHT22;11516;51.612;7.510;2022-08-19T07:17:06;20.00;99.90
22698;DHT22;11516;51.612;7.510;2022-08-19T07:19:53;20.10;99.90
22698;DHT22;11516;51.612;7.510;2022-08-19T07:22:21;20.20;99.90
22698;DHT22;11516;51.612;7.510;2022-08-19T07:24:51;20.30;99.90
22698;DHT22;11516;51.612;7.510;2022-08-19T07:27:48;20.30;99.90
22698;DHT22;11516;51.612;7.510;2022-08-19T07:30:38;20.60;99.90
22698;DHT22;11516;51.612;7.510;2022-08-19T07:33:05;20.50;99.90
22698;DHT22;11516;51.612;7.510;2022-08-19T07:35:42;20.70;99.90
22698;DHT22;11516;51.612;7.510;2022-08-19T07:41:04;21.00;99.90
22698;DHT22;11516;51.612;7.510;2022-08-19T07:46:56;21.20;99.90
22698;DHT22;11516;51.612;7.510;2022-08-19T07:49:25;21.20;99.90
22698;DHT22;11516;51.612;7.510;2022-08-19T07:52:09;21.20;99.90
22698;DHT22;11516;51.612;7.510;2022-08-19T07:54:38;21.30;99.90
22698;DHT22;11516;51.612;7.510;2022-08-19T07:57:13;21.40;99.90
22698;DHT22;11516;51.612;7.510;2022-08-19T07:59:39;21.40;99.90
22698;DHT22;11516;51.612;7.510;2022-08-19T08:02:05;21.60;99.90
22698;DHT22;11516;51.612;7.510;2022-08-19T08:04:31;21.70;99.90
22698;DHT22;11516;51.612;7.510;2022-08-19T08:07:15;21.70;99.90
22698;DHT22;11516;51.612;7.510;2022-08-19T08:10:02;21.80;99.90
22698;DHT22;11516;51.612;7.510;2022-08-19T08:12:35;21.90;99.90
22698;DHT22;11516;51.612;7.510;2022-08-19T08:32:12;22.30;99.90
22698;DHT22;11516;51.612;7.510;2022-08-19T08:35:27;22.50;99.90
22698;DHT22;11516;51.612;7.510;2022-08-19T08:37:54;22.70;99.90
22698;DHT22;11516;51.612;7.510;2022-08-19T08:40:30;22.70;99.90
22698;DHT22;11516;51.612;7.510;2022-08-19T08:43:02;22.80;99.90
22698;DHT22;11516;51.612;7.510;2022-08-19T08:45:37;22.80;99.90
22698;DHT22;11516;51.612;7.510;2022-08-19T08:48:39;22.90;99.90
22698;DHT22;11516;51.612;7.510;2022-08-19T08:54:46;23.20;99.90
22698;DHT22;11516;51.612;7.510;2022-08-19T08:57:35;23.40;99.90
22698;DHT22;11516;51.612;7.510;2022-08-19T09:00:10;23.40;99.90
22698;DHT22;11516;51.612;7.510;2022-08-19T09:02:49;23.70;99.90
22698;DHT22;11516;51.612;7.510;2022-08-19T09:05:17;23.70;99.90
22698;DHT22;11516;51.612;7.510;2022-08-19T09:14:53;24.30;99.90
22698;DHT22;11516;51.612;7.510;2022-08-19T09:17:24;24.30;99.90
22698;DHT22;11516;51.612;7.510;2022-08-19T09:22:21;24.10;99.90
22698;DHT22;11516;51.612;7.510;2022-08-19T09:25:09;24.30;99.90
22698;DHT22;11516;51.612;7.510;2022-08-19T09:27:37;24.30;99.90
22698;DHT22;11516;51.612;7.510;2022-08-19T09:30:06;24.40;99.40
22698;DHT22;11516;51.612;7.510;2022-08-19T09:32:51;24.90;99.20
22698;DHT22;11516;51.612;7.510;2022-08-19T09:35:25;24.80;99.50
22698;DHT22;11516;51.612;7.510;2022-08-19T09:37:52;25.00;98.80
22698;DHT22;11516;51.612;7.510;2022-08-19T09:40:19;24.70;98.70
22698;DHT22;11516;51.612;7.510;2022-08-19T09:42:46;24.80;98.70
22698;DHT22;11516;51.612;7.510;2022-08-19T09:45:15;24.70;98.90
22698;DHT22;11516;51.612;7.510;2022-08-19T09:47:42;24.60;98.80
22698;DHT22;11516;51.612;7.510;2022-08-19T09:50:10;24.50;97.60
22698;DHT22;11516;51.612;7.510;2022-08-19T09:52:39;24.40;96.90
22698;DHT22;11516;51.612;7.510;2022-08-19T09:55:07;24.50;96.70
22698;DHT22;11516;51.612;7.510;2022-08-19T09:57:41;24.60;96.60
22698;DHT22;11516;51.612;7.510;2022-08-19T10:00:14;24.90;96.10
22698;DHT22;11516;51.612;7.510;2022-08-19T10:02:47;25.00;95.40
22698;DHT22;11516;51.612;7.510;2022-08-19T10:05:16;25.20;95.20
22698;DHT22;11516;51.612;7.510;2022-08-19T10:08:03;25.20;94.40
22698;DHT22;11516;51.612;7.510;2022-08-19T10:10:29;25.30;93.40
22698;DHT22;11516;51.612;7.510;2022-08-19T10:12:58;25.20;93.40
22698;DHT22;11516;51.612;7.510;2022-08-19T10:15:23;25.20;94.30
22698;DHT22;11516;51.612;7.510;2022-08-19T10:17:49;25.20;93.20
22698;DHT22;11516;51.612;7.510;2022-08-19T10:20:24;25.20;93.00
22698;DHT22;11516;51.612;7.510;2022-08-19T10:22:53;25.20;93.30
22698;DHT22;11516;51.612;7.510;2022-08-19T10:25:21;25.50;92.70
22698;DHT22;11516;51.612;7.510;2022-08-19T10:27:55;25.70;92.00
22698;DHT22;11516;51.612;7.510;2022-08-19T10:30:31;25.50;91.90
22698;DHT22;11516;51.612;7.510;2022-08-19T10:33:00;25.50;92.30
22698;DHT22;11516;51.612;7.510;2022-08-19T10:35:37;25.50;93.00
22698;DHT22;11516;51.612;7.510;2022-08-19T10:38:06;25.30;93.40
22698;DHT22;11516;51.612;7.510;2022-08-19T10:40:31;25.20;93.90
22698;DHT22;11516;51.612;7.510;2022-08-19T10:42:57;25.40;93.20
22698;DHT22;11516;51.612;7.510;2022-08-19T10:45:23;25.60;92.90
22698;DHT22;11516;51.612;7.510;2022-08-19T10:47:54;25.70;91.90
22698;DHT22;11516;51.612;7.510;2022-08-19T10:50:20;25.80;91.40
22698;DHT22;11516;51.612;7.510;2022-08-19T10:53:07;26.00;90.80
22698;DHT22;11516;51.612;7.510;2022-08-19T10:55:35;26.30;90.30
22698;DHT22;11516;51.612;7.510;2022-08-19T10:58:25;26.60;87.40
22698;DHT22;11516;51.612;7.510;2022-08-19T11:00:56;26.30;89.90
22698;DHT22;11516;51.612;7.510;2022-08-19T11:03:23;25.80;90.60
22698;DHT22;11516;51.612;7.510;2022-08-19T11:06:04;26.20;88.40
22698;DHT22;11516;51.612;7.510;2022-08-19T11:08:30;26.10;88.10
22698;DHT22;11516;51.612;7.510;2022-08-19T11:10:59;26.40;89.60
22698;DHT22;11516;51.612;7.510;2022-08-19T11:13:35;26.60;89.60
22698;DHT22;11516;51.612;7.510;2022-08-19T11:16:12;26.60;88.60
22698;DHT22;11516;51.612;7.510;2022-08-19T11:22:38;27.10;88.00
22698;DHT22;11516;51.612;7.510;2022-08-19T11:25:14;27.60;86.40
22698;DHT22;11516;51.612;7.510;2022-08-19T11:28:00;28.40;83.10
22698;DHT22;11516;51.612;7.510;2022-08-19T11:30:38;29.20;80.30
22698;DHT22;11516;51.612;7.510;2022-08-19T11:33:45;29.70;76.40
22698;DHT22;11516;51.612;7.510;2022-08-19T11:38:36;29.10;75.00
22698;DHT22;11516;51.612;7.510;2022-08-19T11:41:11;29.50;72.10
22698;DHT22;11516;51.612;7.510;2022-08-19T11:43:56;29.70;70.60
22698;DHT22;11516;51.612;7.510;2022-08-19T11:46:37;29.60;71.30
22698;DHT22;11516;51.612;7.510;2022-08-19T11:49:05;29.90;71.00
22698;DHT22;11516;51.612;7.510;2022-08-19T11:51:45;30.60;70.30
22698;DHT22;11516;51.612;7.510;2022-08-19T11:54:15;30.70;68.30
22698;DHT22;11516;51.612;7.510;2022-08-19T11:56:41;30.40;69.50
22698;DHT22;11516;51.612;7.510;2022-08-19T11:59:07;30.40;67.40
22698;DHT22;11516;51.612;7.510;2022-08-19T12:01:33;30.60;67.30
22698;DHT22;11516;51.612;7.510;2022-08-19T12:03:59;30.50;67.80
22698;DHT22;11516;51.612;7.510;2022-08-19T12:06:32;30.50;66.70
22698;DHT22;11516;51.612;7.510;2022-08-19T12:09:04;30.70;65.80
22698;DHT22;11516;51.612;7.510;2022-08-19T12:11:30;30.80;65.50
22698;DHT22;11516;51.612;7.510;2022-08-19T12:13:56;31.00;63.60
22698;DHT22;11516;51.612;7.510;2022-08-19T12:16:26;31.30;63.10
22698;DHT22;11516;51.612;7.510;2022-08-19T12:18:53;30.90;61.20
22698;DHT22;11516;51.612;7.510;2022-08-19T12:21:23;30.40;63.60
22698;DHT22;11516;51.612;7.510;2022-08-19T12:23:50;30.30;64.20
22698;DHT22;11516;51.612;7.510;2022-08-19T12:26:17;30.60;64.30
22698;DHT22;11516;51.612;7.510;2022-08-19T12:28:43;30.50;64.30
22698;DHT22;11516;51.612;7.510;2022-08-19T12:31:10;30.80;64.70
22698;DHT22;11516;51.612;7.510;2022-08-19T12:33:37;30.60;66.00
22698;DHT22;11516;51.612;7.510;2022-08-19T12:36:06;30.60;64.20
22698;DHT22;11516;51.612;7.510;2022-08-19T12:38:32;30.60;63.40
22698;DHT22;11516;51.612;7.510;2022-08-19T12:40:59;30.20;62.60
22698;DHT22;11516;51.612;7.510;2022-08-19T12:43:26;30.50;63.40
22698;DHT22;11516;51.612;7.510;2022-08-19T12:45:51;31.00;63.50
22698;DHT22;11516;51.612;7.510;2022-08-19T12:48:17;31.60;60.20
22698;DHT22;11516;51.612;7.510;2022-08-19T12:50:44;30.90;60.70
22698;DHT22;11516;51.612;7.510;2022-08-19T12:53:13;30.80;63.10
22698;DHT22;11516;51.612;7.510;2022-08-19T12:55:40;31.00;63.10
22698;DHT22;11516;51.612;7.510;2022-08-19T12:58:06;29.60;65.50
22698;DHT22;11516;51.612;7.510;2022-08-19T13:00:31;29.40;66.90
22698;DHT22;11516;51.612;7.510;2022-08-19T13:02:58;28.90;68.70
22698;DHT22;11516;51.612;7.510;2022-08-19T13:05:26;28.60;69.70
22698;DHT22;11516;51.612;7.510;2022-08-19T13:07:53;28.60;69.70
22698;DHT22;11516;51.612;7.510;2022-08-19T13:10:28;29.00;68.30
22698;DHT22;11516;51.612;7.510;2022-08-19T13:12:54;29.10;68.00
22698;DHT22;11516;51.612;7.510;2022-08-19T13:15:21;29.00;67.40
22698;DHT22;11516;51.612;7.510;2022-08-19T13:17:48;28.80;68.10
22698;DHT22;11516;51.612;7.510;2022-08-19T13:20:16;28.70;68.70
22698;DHT22;11516;51.612;7.510;2022-08-19T13:22:42;28.30;69.00
22698;DHT22;11516;51.612;7.510;2022-08-19T13:25:08;28.10;69.40
22698;DHT22;11516;51.612;7.510;2022-08-19T13:27:35;28.20;68.40
22698;DHT22;11516;51.612;7.510;2022-08-19T13:30:01;28.30;67.80
22698;DHT22;11516;51.612;7.510;2022-08-19T13:32:46;29.20;66.00
22698;DHT22;11516;51.612;7.510;2022-08-19T13:35:30;29.10;63.10
22698;DHT22;11516;51.612;7.510;2022-08-19T13:37:56;28.70;65.10
22698;DHT22;11516;51.612;7.510;2022-08-19T13:40:24;29.30;63.80
22698;DHT22;11516;51.612;7.510;2022-08-19T13:42:53;29.00;64.10
22698;DHT22;11516;51.612;7.510;2022-08-19T13:45:26;29.10;64.80
22698;DHT22;11516;51.612;7.510;2022-08-19T13:47:54;29.00;63.80
22698;DHT22;11516;51.612;7.510;2022-08-19T13:50:25;28.70;64.30
22698;DHT22;11516;51.612;7.510;2022-08-19T13:52:51;28.70;63.90
22698;DHT22;11516;51.612;7.510;2022-08-19T13:55:17;29.10;63.60
22698;DHT22;11516;51.612;7.510;2022-08-19T13:57:43;29.40;63.80
22698;DHT22;11516;51.612;7.510;2022-08-19T14:00:14;30.10;62.20
22698;DHT22;11516;51.612;7.510;2022-08-19T14:02:40;30.50;61.50
22698;DHT22;11516;51.612;7.510;2022-08-19T14:05:08;30.80;61.10
22698;DHT22;11516;51.612;7.510;2022-08-19T14:07:34;30.80;60.80
22698;DHT22;11516;51.612;7.510;2022-08-19T14:10:00;30.60;60.20
22698;DHT22;11516;51.612;7.510;2022-08-19T14:12:25;30.50;61.00
22698;DHT22;11516;51.612;7.510;2022-08-19T14:14:51;30.50;61.50
22698;DHT22;11516;51.612;7.510;2022-08-19T14:17:16;30.90;60.30
22698;DHT22;11516;51.612;7.510;2022-08-19T14:19:43;31.20;60.10
22698;DHT22;11516;51.612;7.510;2022-08-19T14:22:08;31.20;60.00
22698;DHT22;11516;51.612;7.510;2022-08-19T14:24:36;31.20;59.40
22698;DHT22;11516;51.612;7.510;2022-08-19T14:27:02;31.30;59.50
22698;DHT22;11516;51.612;7.510;2022-08-19T14:29:28;31.40;58.90
22698;DHT22;11516;51.612;7.510;2022-08-19T14:31:54;30.80;59.20
22698;DHT22;11516;51.612;7.510;2022-08-19T14:34:21;30.90;59.90
22698;DHT22;11516;51.612;7.510;2022-08-19T14:36:47;31.10;59.50
22698;DHT22;11516;51.612;7.510;2022-08-19T14:39:12;30.90;58.80
22698;DHT22;11516;51.612;7.510;2022-08-19T14:41:40;30.60;59.90
22698;DHT22;11516;51.612;7.510;2022-08-19T14:44:06;30.90;59.90
22698;DHT22;11516;51.612;7.510;2022-08-19T14:46:32;31.10;58.60
22698;DHT22;11516;51.612;7.510;2022-08-19T14:48:57;31.40;58.10
22698;DHT22;11516;51.612;7.510;2022-08-19T14:51:24;31.80;57.60
22698;DHT22;11516;51.612;7.510;2022-08-19T14:53:52;31.40;57.40
22698;DHT22;11516;51.612;7.510;2022-08-19T14:56:20;30.90;57.90
22698;DHT22;11516;51.612;7.510;2022-08-19T14:58:46;30.60;59.30
22698;DHT22;11516;51.612;7.510;2022-08-19T15:01:13;29.80;60.50
22698;DHT22;11516;51.612;7.510;2022-08-19T15:03:39;29.30;61.00
22698;DHT22;11516;51.612;7.510;2022-08-19T15:06:08;29.10;62.00
22698;DHT22;11516;51.612;7.510;2022-08-19T15:08:35;28.90;62.20
22698;DHT22;11516;51.612;7.510;2022-08-19T15:11:02;29.20;62.00
22698;DHT22;11516;51.612;7.510;2022-08-19T15:13:28;29.20;61.30
22698;DHT22;11516;51.612;7.510;2022-08-19T15:15:56;28.80;61.60
22698;DHT22;11516;51.612;7.510;2022-08-19T15:18:22;28.90;61.90
22698;DHT22;11516;51.612;7.510;2022-08-19T15:20:49;29.60;61.10
22698;DHT22;11516;51.612;7.510;2022-08-19T15:23:16;29.70;60.20
22698;DHT22;11516;51.612;7.510;2022-08-19T15:25:42;29.70;60.40
22698;DHT22;11516;51.612;7.510;2022-08-19T15:28:08;29.40;61.10
22698;DHT22;11516;51.612;7.510;2022-08-19T15:30:37;29.30;60.70
22698;DHT22;11516;51.612;7.510;2022-08-19T15:33:04;29.30;60.50
22698;DHT22;11516;51.612;7.510;2022-08-19T15:35:30;29.50;60.80
22698;DHT22;11516;51.612;7.510;2022-08-19T15:37:56;29.40;60.40
22698;DHT22;11516;51.612;7.510;2022-08-19T15:40:23;29.30;60.70
22698;DHT22;11516;51.612;7.510;2022-08-19T15:42:49;29.00;60.70
22698;DHT22;11516;51.612;7.510;2022-08-19T15:45:16;29.00;60.80
22698;DHT22;11516;51.612;7.510;2022-08-19T15:47:42;28.90;61.50
22698;DHT22;11516;51.612;7.510;2022-08-19T15:50:13;28.60;62.40
22698;DHT22;11516;51.612;7.510;2022-08-19T15:52:50;28.50;63.20
22698;DHT22;11516;51.612;7.510;2022-08-19T15:55:25;28.30;63.40
22698;DHT22;11516;51.612;7.510;2022-08-19T15:57:52;28.20;63.50
22698;DHT22;11516;51.612;7.510;2022-08-19T16:00:36;28.00;64.10
22698;DHT22;11516;51.612;7.510;2022-08-19T16:03:21;28.10;64.20
22698;DHT22;11516;51.612;7.510;2022-08-19T16:06:05;28.00;64.20
22698;DHT22;11516;51.612;7.510;2022-08-19T16:08:49;28.00;64.50
22698;DHT22;11516;51.612;7.510;2022-08-19T16:11:17;27.80;65.00
22698;DHT22;11516;51.612;7.510;2022-08-19T16:13:47;27.80;64.70
22698;DHT22;11516;51.612;7.510;2022-08-19T16:16:28;27.70;65.30
22698;DHT22;11516;51.612;7.510;2022-08-19T16:18:56;27.70;65.60
22698;DHT22;11516;51.612;7.510;2022-08-19T16:21:23;27.50;66.10
22698;DHT22;11516;51.612;7.510;2022-08-19T16:23:50;27.40;66.60
22698;DHT22;11516;51.612;7.510;2022-08-19T16:26:17;27.40;66.90
22698;DHT22;11516;51.612;7.510;2022-08-19T16:28:44;27.40;67.20
22698;DHT22;11516;51.612;7.510;2022-08-19T16:31:12;27.40;67.20
22698;DHT22;11516;51.612;7.510;2022-08-19T16:33:37;27.50;67.50
22698;DHT22;11516;51.612;7.510;2022-08-19T16:36:03;27.50;68.10
22698;DHT22;11516;51.612;7.510;2022-08-19T16:38:31;27.50;68.20
22698;DHT22;11516;51.612;7.510;2022-08-19T16:40:57;27.50;68.60